Notice: Undefined index: station in /home3/dimtiris/public_html/webApp/metar/index.php on line 4

Metar

Weather conditions for all airports of the world. Just type the ICAO code of an airport.

LGAV 260050Z 36008KT 320V020 9999 SCT030 BKN070 15/08 Q1015 NOSIG

STATION LGAV
OBSERVED Sat Oct 25, 18:50 MDT
NOW Sat Oct 25, 18:59 MDT
AGE 9 min ago
WIND N at 9 mph
VISIBILITY 16 miles
CONDITIONS
CLOUDS mostly cloudy
TEMP 59°F (15°C)
DEWPT 46°F (8°C)
HUMIDITY 63%
BAROMETER 1015 hPa (29.97 in Hg)

Get weather info from other station:

Some ICAO codes to try: